Time;durP1;ratioP1;P1;durP2;ratioP2;P2;SDS_P1;SDS_P2;PMS_P1;PMS_P2;Temp;Humidity;BMP_temperature;BMP_pressure;BME280_temperature;BME280_humidity;BME280_pressure;Samples;Min_cycle;Max_cycle;Signal;HPM_P1;HPM_P2
2024/02/05 00:00:55;;;;;;;6.50;2.40;;;;;;;2.89;87.16;97604.88;107666;1251;73991;-40
2024/02/05 00:03:22;;;;;;;4.50;2.50;;;;;;;2.86;87.24;97593.11;107690;1250;67399;-40
2024/02/05 00:05:50;;;;;;;4.60;2.50;;;;;;;2.87;87.22;97595.52;107698;1251;72807;-39
2024/02/05 00:08:18;;;;;;;6.30;2.50;;;;;;;2.93;86.87;97593.65;107585;1251;60897;-39
2024/02/05 00:10:46;;;;;;;8.60;3.00;;;;;;;2.96;86.86;97588.64;107695;1251;60320;-40
2024/02/05 00:13:13;;;;;;;9.60;3.10;;;;;;;2.94;86.79;97588.85;107724;1251;73771;-40
2024/02/05 00:15:41;;;;;;;8.50;2.90;;;;;;;2.96;86.79;97587.81;107636;1250;68323;-39
2024/02/05 00:18:09;;;;;;;5.60;2.40;;;;;;;3.01;86.72;97586.38;107623;1250;71391;-40
2024/02/05 00:20:36;;;;;;;7.50;3.30;;;;;;;3.05;86.71;97579.73;107602;1251;60514;-39
2024/02/05 00:23:04;;;;;;;6.80;2.90;;;;;;;3.03;86.63;97577.34;107672;1251;60303;-39
2024/02/05 00:25:33;;;;;;;5.00;2.70;;;;;;;3.00;86.97;97570.98;107666;1250;73784;-38
2024/02/05 00:28:00;;;;;;;6.40;2.70;;;;;;;3.03;86.84;97575.19;107619;1250;67100;-39
2024/02/05 00:30:28;;;;;;;7.30;3.30;;;;;;;3.08;86.94;97569.08;107641;1256;71674;-39
2024/02/05 00:32:56;;;;;;;6.60;3.00;;;;;;;3.08;87.02;97561.36;107725;1251;60431;-38
2024/02/05 00:35:23;;;;;;;8.80;3.20;;;;;;;3.06;87.12;97557.27;107707;1256;60373;-39
2024/02/05 00:37:52;;;;;;;8.80;3.00;;;;;;;3.10;87.22;97558.25;107699;1250;73799;-38
2024/02/05 00:40:20;;;;;;;6.90;2.90;;;;;;;3.16;87.09;97553.63;107692;1250;67556;-38
2024/02/05 00:42:48;;;;;;;7.20;3.10;;;;;;;3.19;87.27;97545.71;107749;1250;72747;-38
2024/02/05 00:45:16;;;;;;;7.30;3.10;;;;;;;3.18;87.19;97538.36;107689;1251;61027;-40
2024/02/05 00:47:44;;;;;;;8.70;3.00;;;;;;;3.22;87.02;97537.89;107709;1250;60401;-38
2024/02/05 00:50:11;;;;;;;7.50;3.30;;;;;;;3.30;86.47;97532.17;107654;1250;73061;-39
2024/02/05 00:52:39;;;;;;;5.80;2.90;;;;;;;3.36;85.97;97528.83;107693;1250;68044;-39
2024/02/05 00:55:07;;;;;;;7.40;2.90;;;;;;;3.40;85.57;97513.50;107653;1250;72707;-39
2024/02/05 00:57:35;;;;;;;10.00;2.60;;;;;;;3.48;85.15;97499.48;107615;1251;61323;-40
2024/02/05 01:00:07;;;;;;;6.70;2.90;;;;;;;3.56;84.28;97497.39;107572;1250;60380;-39
2024/02/05 01:02:36;;;;;;;6.10;2.90;;;;;;;3.60;83.87;97495.77;107583;1250;72315;-40
2024/02/05 01:05:05;;;;;;;5.10;2.70;;;;;;;3.60;83.62;97495.16;107634;1253;68734;-40
2024/02/05 01:07:33;;;;;;;6.80;2.90;;;;;;;3.67;83.44;97493.96;107548;1254;71419;-39
2024/02/05 01:10:00;;;;;;;5.50;2.80;;;;;;;3.73;83.11;97483.73;107557;1254;60625;-40
2024/02/05 01:12:28;;;;;;;5.90;2.80;;;;;;;3.72;82.71;97478.74;107704;1252;60391;-39
2024/02/05 01:14:56;;;;;;;5.50;2.50;;;;;;;3.72;82.89;97479.34;107547;1252;73791;-39
2024/02/05 01:17:23;;;;;;;8.30;2.80;;;;;;;3.73;82.53;97470.92;107561;1253;67564;-39
2024/02/05 01:19:51;;;;;;;8.30;3.00;;;;;;;3.78;82.22;97464.73;107586;1255;70609;-40
2024/02/05 01:22:18;;;;;;;6.40;3.00;;;;;;;3.79;82.15;97464.15;107593;1254;60511;-40
2024/02/05 01:24:46;;;;;;;6.30;2.80;;;;;;;3.77;81.94;97460.83;107643;1253;60345;-39
2024/02/05 01:27:13;;;;;;;6.20;2.50;;;;;;;3.80;81.70;97457.10;107691;1254;72875;-40
2024/02/05 01:29:43;;;;;;;8.90;3.40;;;;;;;3.85;81.18;97452.52;107672;1253;67242;-40
2024/02/05 01:32:13;;;;;;;8.40;3.20;;;;;;;3.84;81.09;97448.59;107681;1253;71887;-40
2024/02/05 01:34:41;;;;;;;5.00;2.60;;;;;;;3.81;80.82;97446.86;107660;1253;60889;-40
2024/02/05 01:37:09;;;;;;;6.70;2.80;;;;;;;3.82;80.60;97452.85;107733;1252;59829;-40
2024/02/05 01:39:36;;;;;;;5.60;2.60;;;;;;;3.86;80.53;97447.54;107617;1252;72627;-40
2024/02/05 01:42:04;;;;;;;5.40;2.80;;;;;;;3.86;80.45;97448.39;107682;1253;67441;-40
2024/02/05 01:44:31;;;;;;;8.00;3.10;;;;;;;3.83;80.29;97440.92;107653;1252;72506;-39
2024/02/05 01:46:59;;;;;;;6.10;2.70;;;;;;;3.83;80.30;97436.55;107670;1252;59981;-40
2024/02/05 01:49:26;;;;;;;7.30;3.10;;;;;;;3.86;79.86;97430.09;107678;1252;60440;-40
2024/02/05 01:51:55;;;;;;;5.90;2.70;;;;;;;3.87;79.68;97430.03;107586;1252;73813;-39
2024/02/05 01:54:22;;;;;;;8.60;3.20;;;;;;;3.83;79.72;97431.33;107590;1253;67442;-39
2024/02/05 01:56:50;;;;;;;7.90;3.30;;;;;;;3.81;79.57;97426.49;107501;1254;72659;-40
2024/02/05 01:59:17;;;;;;;7.60;3.00;;;;;;;3.87;79.39;97431.33;107403;1253;63170;-40
2024/02/05 02:01:45;;;;;;;7.80;3.50;;;;;;;3.89;79.34;97421.86;107632;1253;60514;-39
2024/02/05 02:04:14;;;;;;;7.40;3.60;;;;;;;3.85;79.43;97413.62;107718;1253;73874;-41
2024/02/05 02:06:42;;;;;;;8.10;2.70;;;;;;;3.84;79.71;97417.18;107502;1253;68887;-40
2024/02/05 02:09:13;;;;;;;6.10;2.80;;;;;;;3.87;79.70;97406.89;107555;1253;71506;-40
2024/02/05 02:11:41;;;;;;;10.20;3.50;;;;;;;3.89;79.43;97399.19;107647;1253;60301;-40
2024/02/05 02:14:09;;;;;;;6.20;2.80;;;;;;;3.85;79.45;97396.31;107655;1252;60400;-40
2024/02/05 02:16:37;;;;;;;7.30;3.00;;;;;;;3.78;79.66;97384.73;107651;1252;72583;-40
2024/02/05 02:19:16;;;;;;;6.90;3.40;;;;;;;3.73;79.68;97380.90;107577;1253;67646;-40
2024/02/05 02:21:45;;;;;;;11.60;3.60;;;;;;;3.79;79.61;97386.72;107652;1254;72073;-40
2024/02/05 02:24:13;;;;;;;6.50;2.70;;;;;;;3.76;79.90;97400.39;107610;1256;59687;-40
2024/02/05 02:26:40;;;;;;;7.80;3.10;;;;;;;3.73;79.88;97391.30;107679;1252;59272;-40
2024/02/05 02:29:08;;;;;;;8.20;3.10;;;;;;;3.77;79.83;97392.66;107646;1256;72666;-40
2024/02/05 02:31:35;;;;;;;9.90;3.20;;;;;;;3.83;79.60;97384.02;107624;1253;68362;-40
2024/02/05 02:34:18;;;;;;;9.10;3.60;;;;;;;3.85;79.47;97386.27;107482;1253;71497;-40
2024/02/05 02:36:55;;;;;;;7.30;3.00;;;;;;;3.87;79.21;97374.49;107605;1254;60492;-40
2024/02/05 02:39:24;;;;;;;7.90;2.90;;;;;;;3.90;78.89;97365.05;107641;1253;60984;-40
2024/02/05 02:41:51;;;;;;;8.20;2.90;;;;;;;3.96;78.55;97368.41;107682;1253;72673;-40
2024/02/05 02:44:19;;;;;;;7.00;3.10;;;;;;;3.95;78.33;97368.33;107674;1252;68500;-39
2024/02/05 02:46:46;;;;;;;6.70;3.20;;;;;;;3.92;78.31;97363.45;107497;1253;71401;-40
2024/02/05 02:49:14;;;;;;;7.30;2.90;;;;;;;3.94;78.16;97372.44;107590;1253;61039;-40
2024/02/05 02:51:41;;;;;;;7.50;3.80;;;;;;;4.01;77.71;97361.58;107602;1252;60437;-40
2024/02/05 02:54:09;;;;;;;8.70;3.20;;;;;;;4.02;77.58;97364.80;107663;1253;72541;-39
2024/02/05 02:56:37;;;;;;;6.70;3.10;;;;;;;4.02;77.18;97364.42;107740;1253;68689;-40
2024/02/05 02:59:06;;;;;;;9.50;3.10;;;;;;;4.03;77.17;97355.16;107688;1254;71581;-40
2024/02/05 03:01:33;;;;;;;4.90;2.50;;;;;;;4.09;76.82;97364.96;107686;1254;60991;-39
2024/02/05 03:04:01;;;;;;;7.50;2.90;;;;;;;4.11;76.35;97356.80;107658;1253;59749;-40
2024/02/05 03:06:31;;;;;;;8.80;3.40;;;;;;;4.10;76.39;97351.73;107622;1253;72562;-40
2024/02/05 03:08:59;;;;;;;;;;;;;;;4.11;76.43;97348.91;107674;1253;67421;-40
2024/02/05 03:11:26;;;;;;;7.60;3.50;;;;;;;4.16;76.37;97337.85;107623;1253;70562;-40
2024/02/05 03:13:54;;;;;;;8.40;2.60;;;;;;;4.22;76.63;97332.93;107614;1256;60498;-40
2024/02/05 03:16:22;;;;;;;6.90;2.90;;;;;;;4.21;76.77;97327.49;107583;1252;59340;-40
2024/02/05 03:18:49;;;;;;;7.00;2.90;;;;;;;4.18;77.14;97332.21;104662;1252;1003779;-40
2024/02/05 03:21:17;;;;;;;9.10;2.70;;;;;;;4.19;77.33;97332.38;107646;1253;67451;-40
2024/02/05 03:23:44;;;;;;;7.20;2.90;;;;;;;4.23;76.98;97337.85;107517;1253;72727;-40
2024/02/05 03:26:13;;;;;;;5.10;2.60;;;;;;;4.21;76.74;97328.71;107574;1256;59576;-40
2024/02/05 03:28:41;;;;;;;6.70;3.00;;;;;;;4.18;76.36;97323.70;107636;1252;60418;-40
2024/02/05 03:31:08;;;;;;;5.40;2.50;;;;;;;4.23;76.13;97325.83;107659;1253;73843;-40
2024/02/05 03:33:36;;;;;;;7.50;2.60;;;;;;;4.29;75.71;97327.19;107597;1252;67446;-40
2024/02/05 03:36:04;;;;;;;6.60;2.70;;;;;;;4.32;75.18;97326.15;107638;1254;72651;-40
2024/02/05 03:38:32;;;;;;;6.80;2.60;;;;;;;4.33;75.18;97340.04;107680;1253;60478;-40
2024/02/05 03:40:59;;;;;;;7.60;2.80;;;;;;;4.32;75.07;97363.87;107711;1253;60440;-40
2024/02/05 03:43:27;;;;;;;5.90;2.60;;;;;;;4.40;75.77;97398.20;107680;1251;73452;-40
2024/02/05 03:45:54;;;;;;;5.00;2.40;;;;;;;4.45;76.65;97435.08;107638;1253;68455;-40
2024/02/05 03:48:22;;;;;;;4.50;1.80;;;;;;;4.41;77.00;97449.04;107704;1256;72715;-40
2024/02/05 03:50:49;;;;;;;4.10;1.80;;;;;;;4.26;77.01;97451.93;107688;1253;60447;-40
2024/02/05 03:53:17;;;;;;;4.00;1.40;;;;;;;4.09;77.70;97432.55;107477;1253;60527;-40
2024/02/05 03:55:45;;;;;;;3.70;1.40;;;;;;;3.99;78.21;97437.68;107547;1252;73880;-39
2024/02/05 03:58:12;;;;;;;3.20;1.40;;;;;;;3.91;78.99;97441.02;107574;1253;67566;-40
2024/02/05 04:00:40;;;;;;;4.40;1.40;;;;;;;3.80;79.91;97440.11;107551;1252;72714;-40
2024/02/05 04:03:08;;;;;;;2.80;1.40;;;;;;;3.68;80.25;97424.70;107582;1252;59646;-39
2024/02/05 04:05:35;;;;;;;1.90;1.30;;;;;;;3.58;80.54;97412.30;107641;1252;59986;-39
2024/02/05 04:08:04;;;;;;;2.20;1.20;;;;;;;3.50;80.40;97405.30;107612;1254;73827;-40
2024/02/05 04:10:32;;;;;;;3.50;1.40;;;;;;;3.45;80.49;97412.88;107739;1254;67083;-40
2024/02/05 04:13:00;;;;;;;2.80;1.30;;;;;;;3.35;80.95;97403.23;107688;1256;72470;-40
2024/02/05 04:15:27;;;;;;;2.90;1.40;;;;;;;3.25;81.33;97397.79;107599;1254;60428;-39
2024/02/05 04:17:55;;;;;;;4.90;1.20;;;;;;;3.14;81.47;97393.79;107547;1254;60348;-40
2024/02/05 04:20:23;;;;;;;2.50;1.30;;;;;;;3.10;81.84;97390.44;107564;1253;72891;-40
2024/02/05 04:22:51;;;;;;;2.70;1.20;;;;;;;3.09;81.86;97394.16;107688;1253;68626;-39
2024/02/05 04:25:18;;;;;;;3.50;1.40;;;;;;;3.04;82.35;97392.80;107604;1253;72104;-40
2024/02/05 04:27:46;;;;;;;4.70;1.40;;;;;;;2.98;82.88;97400.11;107586;1253;60305;-40
2024/02/05 04:30:16;;;;;;;2.10;1.20;;;;;;;2.96;83.37;97395.33;107636;1254;59995;-39
2024/02/05 04:32:44;;;;;;;1.80;0.90;;;;;;;3.00;83.35;97388.29;107625;1254;74164;-39
2024/02/05 04:35:11;;;;;;;2.10;1.10;;;;;;;3.05;83.54;97390.51;107684;1251;68409;-40
2024/02/05 04:37:40;;;;;;;2.90;1.30;;;;;;;3.04;83.74;97388.49;106934;1250;1003466;-39
2024/02/05 04:40:08;;;;;;;3.20;1.20;;;;;;;2.98;84.27;97377.86;107700;1251;60319;-39
2024/02/05 04:42:36;;;;;;;4.00;1.20;;;;;;;2.96;84.63;97373.59;107732;1250;60142;-40
2024/02/05 04:45:05;;;;;;;3.20;1.10;;;;;;;2.99;84.73;97371.90;107625;1250;73803;-40
2024/02/05 04:47:32;;;;;;;2.90;1.10;;;;;;;3.04;84.87;97367.77;107685;1250;68475;-39
2024/02/05 04:50:00;;;;;;;2.40;1.20;;;;;;;3.04;85.03;97367.02;107642;1251;72661;-39
2024/02/05 04:52:28;;;;;;;2.40;1.10;;;;;;;3.01;85.41;97363.74;107643;1250;59599;-40
2024/02/05 04:54:55;;;;;;;1.90;1.10;;;;;;;3.02;85.56;97366.98;107633;1250;60313;-39
2024/02/05 04:57:23;;;;;;;3.10;1.00;;;;;;;3.08;85.66;97375.41;107683;1250;73657;-39
2024/02/05 04:59:51;;;;;;;1.40;0.80;;;;;;;3.12;85.50;97364.91;107688;1250;67424;-40
2024/02/05 05:02:18;;;;;;;2.00;0.90;;;;;;;3.07;85.57;97366.23;107740;1254;71388;-40
2024/02/05 05:04:46;;;;;;;2.10;1.00;;;;;;;3.01;85.47;97372.48;107612;1253;60305;-39
2024/02/05 05:07:14;;;;;;;1.70;1.10;;;;;;;3.01;85.53;97369.71;107708;1254;60261;-39
2024/02/05 05:09:42;;;;;;;2.70;1.00;;;;;;;3.03;85.69;97376.02;107701;1252;73863;-40
2024/02/05 05:12:10;;;;;;;2.00;0.90;;;;;;;2.99;85.87;97377.02;107717;1253;68411;-39
2024/02/05 05:14:38;;;;;;;2.80;1.00;;;;;;;2.94;86.28;97377.33;107683;1252;72458;-39
2024/02/05 05:17:06;;;;;;;1.50;0.80;;;;;;;2.91;86.53;97374.67;107593;1254;60827;-40
2024/02/05 05:19:34;;;;;;;1.90;0.90;;;;;;;2.94;86.31;97361.05;106779;1253;1003770;-40
2024/02/05 05:23:52;;;;;;;1.50;0.90;;;;;;;2.97;86.28;97354.59;104095;1292;599734;-39
2024/02/05 05:26:23;;;;;;;1.20;1.00;;;;;;;2.90;86.26;97359.83;106587;1266;59186;-39
2024/02/05 05:28:51;;;;;;;1.90;0.90;;;;;;;2.89;86.22;97367.69;106615;1266;59469;-39
2024/02/05 05:31:19;;;;;;;1.80;0.90;;;;;;;2.92;86.11;97361.16;106645;1267;70958;-39
2024/02/05 05:33:47;;;;;;;1.20;0.70;;;;;;;2.97;85.86;97356.66;106737;1266;69273;-39
2024/02/05 05:36:15;;;;;;;0.80;0.70;;;;;;;2.95;85.75;97350.96;106663;1266;72549;-38
2024/02/05 05:38:42;;;;;;;1.80;1.00;;;;;;;2.91;85.89;97342.02;106634;1265;176027;-39
2024/02/05 05:41:09;;;;;;;1.10;0.90;;;;;;;2.88;85.71;97344.80;106783;1264;59315;-38
2024/02/05 05:43:37;;;;;;;1.20;0.80;;;;;;;2.93;85.75;97346.88;106821;1264;71229;-39
2024/02/05 05:46:05;;;;;;;1.20;0.80;;;;;;;2.99;85.48;97348.96;106714;1268;68767;-40
2024/02/05 05:48:32;;;;;;;2.20;1.00;;;;;;;2.99;85.42;97353.94;106720;1269;72750;-39
2024/02/05 05:51:00;;;;;;;2.50;1.00;;;;;;;2.94;84.96;97347.11;106813;1268;59740;-39
2024/02/05 05:53:27;;;;;;;1.50;0.80;;;;;;;2.84;84.33;97344.89;106791;1270;59631;-39
2024/02/05 05:55:55;;;;;;;0.90;0.60;;;;;;;2.80;83.74;97343.61;106796;1266;71883;-39
2024/02/05 05:58:22;;;;;;;1.50;0.70;;;;;;;2.77;83.21;97339.04;106828;1269;68695;-39
2024/02/05 06:00:50;;;;;;;2.50;0.80;;;;;;;2.69;82.69;97334.17;106812;1268;72648;-40
2024/02/05 06:03:18;;;;;;;1.50;0.80;;;;;;;2.52;82.42;97336.93;106817;1265;59617;-39
2024/02/05 06:05:47;;;;;;;1.10;0.70;;;;;;;2.36;82.55;97331.90;106788;1269;60148;-39
2024/02/05 06:08:15;;;;;;;1.40;0.80;;;;;;;2.31;82.74;97328.14;106793;1269;75243;-39
2024/02/05 06:10:42;;;;;;;1.20;0.70;;;;;;;2.32;82.71;97326.48;106837;1267;68727;-39
2024/02/05 06:13:10;;;;;;;1.00;0.70;;;;;;;2.27;82.90;97319.11;106790;1265;71269;-39
2024/02/05 06:15:38;;;;;;;0.90;0.70;;;;;;;2.19;83.05;97311.13;106727;1264;59561;-40
2024/02/05 06:18:06;;;;;;;0.40;0.40;;;;;;;2.13;83.22;97314.06;106818;1268;60018;-39
2024/02/05 06:20:34;;;;;;;0.50;0.50;;;;;;;2.11;83.14;97315.17;106754;1264;73047;-39
2024/02/05 06:23:02;;;;;;;1.00;0.50;;;;;;;2.11;83.10;97315.73;106819;1269;68962;-39
2024/02/05 06:25:31;;;;;;;0.50;0.40;;;;;;;2.06;83.32;97329.05;106790;1268;72702;-39
2024/02/05 06:27:58;;;;;;;0.30;0.30;;;;;;;1.96;83.72;97331.68;106816;1269;59768;-39
2024/02/05 06:30:27;;;;;;;0.70;0.30;;;;;;;1.88;84.03;97327.94;106809;1265;59643;-39
2024/02/05 06:32:54;;;;;;;0.30;0.30;;;;;;;1.88;84.32;97320.77;106806;1269;70814;-39
2024/02/05 06:35:22;;;;;;;0.70;0.40;;;;;;;1.90;84.41;97317.28;106784;1264;67107;-39
2024/02/05 06:37:50;;;;;;;0.30;0.30;;;;;;;1.84;84.66;97310.83;106791;1267;72351;-39
2024/02/05 06:40:17;;;;;;;1.10;0.40;;;;;;;1.71;84.99;97301.56;106791;1264;59967;-39
2024/02/05 06:42:46;;;;;;;0.50;0.40;;;;;;;1.71;85.50;97312.64;106810;1269;60046;-39
2024/02/05 06:45:14;;;;;;;0.50;0.50;;;;;;;1.71;85.65;97311.95;106748;1269;73072;-39
2024/02/05 06:47:41;;;;;;;0.90;0.50;;;;;;;1.71;85.53;97310.04;106811;1268;68897;-39
2024/02/05 06:50:10;;;;;;;1.00;0.70;;;;;;;1.64;86.09;97303.86;106791;1264;72486;-39
2024/02/05 06:52:38;;;;;;;0.40;0.40;;;;;;;1.59;86.26;97293.30;106733;1267;59631;-39
2024/02/05 06:55:06;;;;;;;1.10;0.50;;;;;;;1.58;86.50;97294.58;106756;1264;59617;-39
2024/02/05 06:57:37;;;;;;;0.60;0.60;;;;;;;1.63;86.55;97295.00;106965;1261;73162;-39
2024/02/05 07:00:08;;;;;;;1.10;0.70;;;;;;;1.69;86.49;97297.16;106980;1261;68674;-39
2024/02/05 07:02:36;;;;;;;1.60;0.70;;;;;;;1.66;86.25;97288.95;106987;1265;72712;-39
2024/02/05 07:05:05;;;;;;;1.50;0.80;;;;;;;1.61;86.50;97288.30;106941;1266;59796;-39
2024/02/05 07:07:33;;;;;;;0.80;0.60;;;;;;;1.60;86.94;97282.18;107048;1260;59666;-39
2024/02/05 07:10:02;;;;;;;0.70;0.60;;;;;;;1.64;86.66;97283.26;107011;1261;73056;-39
2024/02/05 07:12:29;;;;;;;0.90;0.70;;;;;;;1.67;86.60;97283.70;107045;1266;68461;-38
2024/02/05 07:14:57;;;;;;;1.50;1.00;;;;;;;1.67;86.81;97281.26;106985;1263;71992;-39
2024/02/05 07:17:32;;;;;;;2.60;1.10;;;;;;;1.66;86.98;97284.98;107041;1260;59631;-39
2024/02/05 07:20:01;;;;;;;2.30;1.30;;;;;;;1.68;87.08;97283.73;107029;1265;60036;-38
2024/02/05 07:22:29;;;;;;;0.90;0.80;;;;;;;1.72;86.75;97283.27;106978;1266;73014;-39
2024/02/05 07:24:57;;;;;;;2.20;1.20;;;;;;;1.77;86.37;97281.54;107022;1261;67152;-39
2024/02/05 07:27:25;;;;;;;1.60;1.10;;;;;;;1.76;86.40;97290.52;107007;1264;72670;-39
2024/02/05 07:29:53;;;;;;;4.00;1.40;;;;;;;1.72;86.55;97295.19;106116;1264;1003312;-38
2024/02/05 07:32:21;;;;;;;1.80;1.00;;;;;;;1.72;86.79;97280.75;106913;1265;59739;-38
2024/02/05 07:34:49;;;;;;;1.20;0.90;;;;;;;1.79;86.33;97269.13;106846;1267;73196;-39
2024/02/05 07:37:16;;;;;;;1.40;0.90;;;;;;;1.87;86.24;97278.21;106863;1264;68648;-39
2024/02/05 07:39:44;;;;;;;1.60;1.00;;;;;;;1.91;86.20;97269.98;106819;1264;71443;-38
2024/02/05 07:42:12;;;;;;;2.60;1.00;;;;;;;1.91;86.29;97277.23;106862;1263;59600;-39
2024/02/05 07:44:40;;;;;;;1.40;1.00;;;;;;;1.91;86.29;97275.48;106858;1264;59598;-39
2024/02/05 07:47:07;;;;;;;1.60;0.90;;;;;;;1.94;86.13;97283.94;106867;1264;71865;-40
2024/02/05 07:49:35;;;;;;;1.30;1.00;;;;;;;2.04;85.97;97275.73;106845;1263;67506;-39
2024/02/05 07:52:03;;;;;;;1.90;1.10;;;;;;;2.08;85.52;97270.67;106885;1264;72820;-39
2024/02/05 07:54:31;;;;;;;2.00;1.10;;;;;;;2.04;85.32;97272.65;106949;1267;59644;-40
2024/02/05 07:57:02;;;;;;;1.70;1.00;;;;;;;1.99;85.33;97275.55;106890;1264;59663;-39
2024/02/05 07:59:30;;;;;;;1.80;1.10;;;;;;;1.94;85.32;97269.73;106915;1266;71892;-40
2024/02/05 08:01:58;;;;;;;1.50;1.20;;;;;;;1.98;85.17;97268.90;106928;1267;67436;-40
2024/02/05 08:04:27;;;;;;;3.60;1.30;;;;;;;2.01;84.89;97269.63;106880;1264;72828;-40
2024/02/05 08:06:58;;;;;;;2.40;1.10;;;;;;;1.96;85.12;97269.91;106872;1264;59755;-40
2024/02/05 08:09:26;;;;;;;2.90;1.40;;;;;;;1.88;85.31;97261.13;106765;1264;60021;-39
2024/02/05 08:11:54;;;;;;;1.50;1.20;;;;;;;1.82;85.48;97264.48;106770;1264;73006;-40
2024/02/05 08:14:21;;;;;;;1.00;0.90;;;;;;;1.83;85.71;97271.58;106749;1267;66905;-40
2024/02/05 08:16:49;;;;;;;2.20;1.30;;;;;;;1.85;85.43;97267.48;106833;1264;73225;-40
2024/02/05 08:19:17;;;;;;;2.50;1.70;;;;;;;1.84;85.76;97264.27;106795;1267;59836;-39
2024/02/05 08:21:44;;;;;;;2.50;1.80;;;;;;;1.81;85.89;97270.70;106816;1263;59979;-39
2024/02/05 08:24:14;;;;;;;3.00;1.70;;;;;;;1.79;86.15;97277.45;106861;1264;73516;-40
2024/02/05 08:26:41;;;;;;;1.60;1.30;;;;;;;1.81;85.92;97272.84;106802;1267;67376;-40
2024/02/05 08:29:09;;;;;;;1.90;1.10;;;;;;;1.82;85.82;97260.33;106881;1266;71557;-39
2024/02/05 08:31:36;;;;;;;1.50;1.10;;;;;;;1.79;85.95;97258.77;106841;1264;59640;-40
2024/02/05 08:34:04;;;;;;;0.90;0.80;;;;;;;1.73;85.96;97261.00;106930;1263;60137;-39
2024/02/05 08:36:32;;;;;;;1.30;0.90;;;;;;;1.66;86.06;97253.47;106671;1264;72370;-40
2024/02/05 08:39:00;;;;;;;1.00;0.50;;;;;;;1.66;86.44;97253.48;106830;1264;67221;-39
2024/02/05 08:41:28;;;;;;;0.90;0.70;;;;;;;1.69;86.26;97250.77;106856;1266;73041;-40
2024/02/05 08:43:56;;;;;;;1.10;0.70;;;;;;;1.69;86.44;97242.23;106875;1263;59645;-40
2024/02/05 08:46:23;;;;;;;1.40;0.70;;;;;;;1.64;86.77;97252.43;106809;1262;59748;-40
2024/02/05 08:48:51;;;;;;;1.00;0.80;;;;;;;1.58;86.99;97257.59;106856;1263;71417;-40
2024/02/05 08:51:19;;;;;;;1.20;0.90;;;;;;;1.59;86.75;97257.67;106775;1266;68496;-40
2024/02/05 08:53:46;;;;;;;2.10;1.10;;;;;;;1.62;86.69;97245.23;106779;1263;72590;-40
2024/02/05 08:56:14;;;;;;;2.30;1.30;;;;;;;1.63;86.69;97223.20;106808;1264;59527;-40
2024/02/05 08:58:42;;;;;;;2.40;0.90;;;;;;;1.63;87.13;97212.52;106116;1264;1003317;-40
2024/02/05 09:01:10;;;;;;;1.60;0.70;;;;;;;1.64;87.38;97205.67;106863;1264;73028;-39
2024/02/05 09:03:39;;;;;;;1.70;1.30;;;;;;;1.65;87.37;97213.39;106825;1264;68811;-39
2024/02/05 09:06:07;;;;;;;2.70;1.80;;;;;;;1.70;87.40;97227.75;106901;1267;71467;-40
2024/02/05 09:08:36;;;;;;;2.20;1.80;;;;;;;1.77;87.15;97232.30;106846;1263;59668;-40
2024/02/05 09:11:04;;;;;;;3.60;2.20;;;;;;;1.79;87.10;97235.86;106861;1264;59125;-40
2024/02/05 09:13:32;;;;;;;2.20;1.60;;;;;;;1.77;87.17;97233.77;106846;1266;73153;-40
2024/02/05 09:15:59;;;;;;;1.70;1.30;;;;;;;1.73;87.10;97232.33;106805;1267;70051;-40
2024/02/05 09:18:27;;;;;;;0.80;0.80;;;;;;;1.74;86.88;97231.03;106846;1266;71482;-40
2024/02/05 09:20:54;;;;;;;1.20;0.70;;;;;;;1.74;86.57;97241.34;106708;1263;59627;-40
2024/02/05 09:23:22;;;;;;;1.10;0.90;;;;;;;1.67;86.92;97251.89;106754;1264;60158;-40
2024/02/05 09:25:50;;;;;;;0.60;0.60;;;;;;;1.57;87.05;97246.88;106731;1262;71849;-39
2024/02/05 09:28:17;;;;;;;0.60;0.50;;;;;;;1.52;87.21;97244.95;106733;1264;68365;-40
2024/02/05 09:30:45;;;;;;;1.10;0.70;;;;;;;1.54;87.57;97237.05;106747;1264;72506;-39
2024/02/05 09:33:21;;;;;;;0.60;0.60;;;;;;;1.55;87.30;97239.07;106856;1266;60326;-39
2024/02/05 09:35:49;;;;;;;0.50;0.50;;;;;;;1.50;87.72;97240.41;106875;1266;60384;-40
2024/02/05 09:38:17;;;;;;;0.50;0.50;;;;;;;1.47;87.97;97239.11;106817;1262;72584;-39
2024/02/05 09:40:44;;;;;;;0.70;0.70;;;;;;;1.45;88.26;97227.27;106817;1263;68891;-39
2024/02/05 09:43:12;;;;;;;1.00;0.80;;;;;;;1.50;88.08;97232.85;106877;1264;71475;-40
2024/02/05 09:45:40;;;;;;;0.90;0.80;;;;;;;1.50;88.22;97226.45;107115;1263;60719;-40
2024/02/05 09:48:08;;;;;;;0.60;0.60;;;;;;;1.45;88.55;97222.38;107113;1258;60461;-39
2024/02/05 09:50:37;;;;;;;0.60;0.60;;;;;;;1.42;88.76;97214.83;107058;1262;74027;-40
2024/02/05 09:53:05;;;;;;;1.10;0.80;;;;;;;1.46;88.70;97205.59;106303;1258;1003023;-39
2024/02/05 09:55:32;;;;;;;1.30;0.80;;;;;;;1.50;88.42;97197.54;106951;1264;74894;-39
2024/02/05 09:58:00;;;;;;;1.00;0.90;;;;;;;1.48;88.41;97186.58;107040;1260;60445;-39
2024/02/05 10:00:28;;;;;;;1.10;1.00;;;;;;;1.44;88.81;97195.44;107156;1257;60180;-39
2024/02/05 10:02:55;;;;;;;1.10;0.90;;;;;;;1.41;88.93;97191.78;106951;1258;74986;-39
2024/02/05 10:05:23;;;;;;;1.30;1.00;;;;;;;1.46;88.80;97194.32;107130;1258;68474;-40
2024/02/05 10:07:50;;;;;;;1.10;0.80;;;;;;;1.52;88.76;97191.85;107014;1257;71468;-40
2024/02/05 10:10:18;;;;;;;0.60;0.60;;;;;;;1.51;88.64;97193.52;106967;1257;60417;-40
2024/02/05 10:12:47;;;;;;;0.60;0.60;;;;;;;1.49;88.98;97190.20;106930;1264;60501;-40
2024/02/05 10:15:14;;;;;;;0.70;0.60;;;;;;;1.50;88.91;97188.23;106942;1257;72724;-39
2024/02/05 10:17:43;;;;;;;0.70;0.70;;;;;;;1.56;88.75;97174.52;107070;1257;67571;-40
2024/02/05 10:20:12;;;;;;;0.60;0.60;;;;;;;1.61;88.64;97163.92;107076;1258;72810;-40
2024/02/05 10:22:47;;;;;;;;;;;;;;;1.60;88.85;97153.38;106914;1259;60421;-39
2024/02/05 10:25:15;;;;;;;0.70;0.60;;;;;;;1.56;88.83;97169.49;106981;1257;60448;-39
2024/02/05 10:27:43;;;;;;;1.10;0.70;;;;;;;1.58;89.05;97176.77;107204;1261;72688;-40
2024/02/05 10:30:11;;;;;;;0.80;0.80;;;;;;;1.66;88.81;97161.66;107099;1257;68855;-40
2024/02/05 10:32:39;;;;;;;0.90;0.90;;;;;;;1.72;88.69;97156.05;107078;1259;72027;-39
2024/02/05 10:35:08;;;;;;;1.20;0.80;;;;;;;1.71;88.90;97149.17;107135;1260;60429;-40
2024/02/05 10:37:36;;;;;;;1.10;0.80;;;;;;;1.70;88.67;97139.08;107093;1258;60138;-40
2024/02/05 10:40:09;;;;;;;1.00;0.80;;;;;;;1.74;88.70;97135.26;107093;1258;73961;-40
2024/02/05 10:42:37;;;;;;;1.20;0.90;;;;;;;1.81;88.65;97130.48;107080;1257;68545;-40
2024/02/05 10:45:06;;;;;;;0.90;0.80;;;;;;;1.83;88.78;97116.24;107023;1263;72824;-40
2024/02/05 10:47:34;;;;;;;1.00;0.70;;;;;;;1.84;88.57;97108.48;107075;1258;60428;-40
2024/02/05 10:50:03;;;;;;;0.70;0.70;;;;;;;1.93;88.26;97106.72;107159;1257;60254;-40
2024/02/05 10:52:31;;;;;;;1.20;0.90;;;;;;;2.03;87.50;97097.80;107066;1257;73390;-40
2024/02/05 10:55:02;;;;;;;1.00;0.90;;;;;;;2.08;87.18;97100.77;107160;1257;68982;-40
2024/02/05 10:57:31;;;;;;;1.70;0.90;;;;;;;2.10;86.90;97098.90;107116;1260;71318;-40
2024/02/05 10:59:58;;;;;;;1.30;0.70;;;;;;;2.10;86.59;97101.89;106991;1259;61031;-39
2024/02/05 11:02:28;;;;;;;1.30;0.90;;;;;;;2.24;86.18;97118.13;105597;1258;1003813;-39
2024/02/05 11:04:56;;;;;;;2.00;1.10;;;;;;;2.26;86.11;97122.28;107223;1257;73973;-40
2024/02/05 11:07:25;;;;;;;1.20;1.00;;;;;;;2.22;86.09;97117.03;107061;1263;67616;-40
2024/02/05 11:09:52;;;;;;;1.90;1.10;;;;;;;2.24;86.19;97109.11;106947;1258;72819;-40
2024/02/05 11:12:22;;;;;;;1.20;1.00;;;;;;;2.32;86.24;97107.39;107099;1262;60421;-40
2024/02/05 11:14:50;;;;;;;1.90;1.00;;;;;;;2.38;86.09;97104.88;106966;1257;61119;-41
2024/02/05 11:17:18;;;;;;;1.70;1.30;;;;;;;2.40;86.16;97107.83;107066;1258;74063;-40
2024/02/05 11:19:46;;;;;;;1.70;1.20;;;;;;;2.42;86.07;97099.98;107074;1262;68532;-40
2024/02/05 11:22:16;;;;;;;2.00;1.10;;;;;;;2.49;85.92;97108.10;106979;1263;72819;-40
2024/02/05 11:24:46;;;;;;;1.30;1.10;;;;;;;2.57;85.42;97115.17;107042;1259;60517;-40
2024/02/05 11:27:14;;;;;;;1.30;1.20;;;;;;;2.64;85.45;97122.21;107160;1257;60204;-40
2024/02/05 11:29:42;;;;;;;1.40;1.20;;;;;;;2.72;85.68;97123.56;107154;1257;73984;-41
2024/02/05 11:32:10;;;;;;;3.10;1.30;;;;;;;2.84;85.00;97125.24;107070;1261;68169;-40
2024/02/05 11:34:41;;;;;;;1.70;1.10;;;;;;;3.00;84.42;97131.48;107162;1259;71875;-40
2024/02/05 11:37:10;;;;;;;1.00;0.90;;;;;;;3.09;83.05;97139.09;107091;1257;60330;-40
2024/02/05 11:39:43;;;;;;;3.40;1.30;;;;;;;3.07;82.56;97142.42;107035;1260;62435;-41